createdAt,value
2017-09-16T00:00:23.466Z,0
2017-09-16T00:01:33.724Z,0
2017-09-16T00:02:43.963Z,0
2017-09-16T00:03:54.214Z,0
2017-09-16T00:05:04.498Z,0
2017-09-16T00:06:14.438Z,0
2017-09-16T00:07:24.685Z,0
2017-09-16T00:08:34.624Z,0
2017-09-16T00:09:44.867Z,0
2017-09-16T00:10:55.161Z,0
2017-09-16T00:12:05.406Z,0
2017-09-16T00:13:15.641Z,0
2017-09-16T00:14:25.905Z,0
2017-09-16T00:15:36.161Z,0
2017-09-16T00:16:46.756Z,0
2017-09-16T00:17:56.378Z,0
2017-09-16T00:19:06.311Z,0
2017-09-16T00:20:15.939Z,0
2017-09-16T00:21:25.872Z,0
2017-09-16T00:22:36.106Z,0
2017-09-16T00:23:46.044Z,0
2017-09-16T00:24:55.976Z,0
2017-09-16T00:26:06.224Z,0
2017-09-16T00:27:16.470Z,0
2017-09-16T00:28:27.016Z,0
2017-09-16T00:29:37.266Z,0
2017-09-16T00:30:47.207Z,0
2017-09-16T00:31:57.149Z,0
2017-09-16T00:33:07.106Z,0
2017-09-16T00:34:17.337Z,0
2017-09-16T00:35:27.587Z,0
2017-09-16T00:36:37.829Z,0
2017-09-16T00:37:47.770Z,0
2017-09-16T00:38:58.033Z,0
2017-09-16T00:40:08.576Z,0
2017-09-16T00:41:18.503Z,0
2017-09-16T00:42:28.774Z,0
2017-09-16T00:43:38.707Z,0
2017-09-16T00:44:48.647Z,0
2017-09-16T00:45:58.924Z,0
2017-09-16T00:47:09.172Z,0
2017-09-16T00:48:19.120Z,0
2017-09-16T00:49:29.372Z,0
2017-09-16T00:50:39.624Z,0
2017-09-16T00:51:49.599Z,0
2017-09-16T00:52:59.532Z,0
2017-09-16T00:54:09.475Z,0
2017-09-16T00:55:19.105Z,0
2017-09-16T00:56:29.359Z,0
2017-09-16T00:57:39.641Z,0
2017-09-16T00:58:49.892Z,0
2017-09-16T00:59:59.820Z,0
2017-09-16T01:01:09.449Z,0
2017-09-16T01:02:19.721Z,0
2017-09-16T01:03:29.635Z,0
2017-09-16T01:04:39.582Z,0
2017-09-16T01:05:49.826Z,0
2017-09-16T01:07:00.085Z,0
2017-09-16T01:08:10.337Z,0
2017-09-16T01:09:20.574Z,0
2017-09-16T01:10:30.509Z,0
2017-09-16T01:11:40.442Z,0
2017-09-16T01:12:50.377Z,0
2017-09-16T01:14:00.622Z,0
2017-09-16T01:15:10.898Z,0
2017-09-16T01:16:21.141Z,0
2017-09-16T01:17:31.422Z,0
2017-09-16T01:18:41.692Z,0
2017-09-16T01:19:51.933Z,0
2017-09-16T01:21:02.539Z,0
2017-09-16T01:22:12.793Z,0
2017-09-16T01:23:22.724Z,0
2017-09-16T01:24:32.973Z,0
2017-09-16T01:25:43.219Z,0
2017-09-16T01:26:53.524Z,0
2017-09-16T01:28:03.779Z,0
2017-09-16T01:29:14.031Z,0
2017-09-16T01:30:24.277Z,0
2017-09-16T01:31:34.513Z,0
2017-09-16T01:32:45.117Z,0
2017-09-16T01:33:55.379Z,0
2017-09-16T01:35:05.630Z,0
2017-09-16T01:36:15.876Z,0
2017-09-16T01:37:26.117Z,0
2017-09-16T01:38:36.712Z,0
2017-09-16T01:39:46.964Z,0
2017-09-16T01:40:56.894Z,0
2017-09-16T01:42:07.140Z,0
2017-09-16T01:43:17.083Z,0
2017-09-16T01:44:27.688Z,0
2017-09-16T01:45:37.638Z,0
2017-09-16T01:46:47.574Z,0
2017-09-16T01:47:57.499Z,0
2017-09-16T01:49:07.753Z,0
2017-09-16T01:50:18.357Z,0
2017-09-16T01:51:28.598Z,0
2017-09-16T01:52:38.526Z,0
2017-09-16T01:53:48.464Z,0
2017-09-16T01:54:58.712Z,0
2017-09-16T01:56:09.351Z,0
2017-09-16T01:57:19.281Z,0
2017-09-16T01:58:29.530Z,0
2017-09-16T01:59:39.777Z,0
2017-09-16T02:00:50.022Z,0
2017-09-16T02:02:00.579Z,0
2017-09-16T02:03:10.824Z,0
2017-09-16T02:04:21.093Z,0
2017-09-16T02:05:31.343Z,0
2017-09-16T02:06:41.588Z,0
2017-09-16T02:07:51.818Z,0
2017-09-16T02:09:02.075Z,0
2017-09-16T02:10:12.337Z,0
2017-09-16T02:11:22.270Z,0
2017-09-16T02:12:32.519Z,0
2017-09-16T02:13:42.747Z,0
2017-09-16T02:14:52.689Z,0
2017-09-16T02:16:02.936Z,0
2017-09-16T02:17:12.880Z,0
2017-09-16T02:18:22.504Z,0
2017-09-16T02:19:33.099Z,0
2017-09-16T02:20:43.031Z,0
2017-09-16T02:21:52.972Z,0
2017-09-16T02:23:02.583Z,0
2017-09-16T02:24:11.900Z,0
2017-09-16T02:25:22.133Z,0
2017-09-16T02:26:32.372Z,0
2017-09-16T02:27:42.313Z,0
2017-09-16T02:28:52.574Z,0
2017-09-16T02:30:02.837Z,0
2017-09-16T02:31:13.388Z,0
2017-09-16T02:32:23.646Z,0
2017-09-16T02:33:33.567Z,0
2017-09-16T02:34:43.188Z,0
2017-09-16T02:35:53.133Z,0
2017-09-16T02:37:03.739Z,0
2017-09-16T02:38:13.988Z,0
2017-09-16T02:39:24.268Z,0
2017-09-16T02:40:33.928Z,0
2017-09-16T02:41:44.174Z,0
2017-09-16T02:42:54.724Z,0
2017-09-16T02:44:04.653Z,0
2017-09-16T02:45:14.585Z,0
2017-09-16T02:46:24.844Z,0
2017-09-16T02:47:35.102Z,0
2017-09-16T02:48:45.711Z,0
2017-09-16T02:49:55.644Z,0
2017-09-16T02:51:05.572Z,0
2017-09-16T02:52:15.510Z,0
2017-09-16T02:53:25.441Z,0
2017-09-16T02:54:36.055Z,0
2017-09-16T02:55:45.989Z,0
2017-09-16T02:56:56.232Z,0
2017-09-16T02:58:06.485Z,0
2017-09-16T02:59:16.406Z,0
2017-09-16T03:00:26.999Z,0
2017-09-16T03:01:37.261Z,0
2017-09-16T03:02:47.508Z,0
2017-09-16T03:03:57.764Z,0
2017-09-16T03:05:08.014Z,0
2017-09-16T03:06:18.298Z,0
2017-09-16T03:07:28.222Z,0
2017-09-16T03:08:38.164Z,0
2017-09-16T03:09:48.107Z,0
2017-09-16T03:10:58.034Z,0
2017-09-16T03:12:08.325Z,0
2017-09-16T03:13:18.258Z,0
2017-09-16T03:14:28.184Z,0
2017-09-16T03:15:38.119Z,0
2017-09-16T03:16:48.375Z,0
2017-09-16T03:17:58.915Z,0
2017-09-16T03:19:09.166Z,0
2017-09-16T03:20:19.414Z,0
2017-09-16T03:21:29.342Z,0
2017-09-16T03:22:39.266Z,0
2017-09-16T03:23:49.816Z,0
2017-09-16T03:25:00.061Z,0
2017-09-16T03:26:09.914Z,0
2017-09-16T03:27:19.841Z,0
2017-09-16T03:28:29.770Z,0
2017-09-16T03:29:40.368Z,0
2017-09-16T03:30:50.316Z,0
2017-09-16T03:32:00.570Z,0
2017-09-16T03:33:10.498Z,0
2017-09-16T03:34:20.457Z,0
2017-09-16T03:35:30.995Z,0
2017-09-16T03:36:41.239Z,0
2017-09-16T03:37:50.859Z,0
2017-09-16T03:39:00.798Z,0
2017-09-16T03:40:11.040Z,0
2017-09-16T03:41:21.271Z,0
2017-09-16T03:42:31.535Z,0
2017-09-16T03:43:41.509Z,0
2017-09-16T03:44:51.441Z,0
2017-09-16T03:46:01.368Z,0
2017-09-16T03:47:11.923Z,0
2017-09-16T03:48:21.542Z,0
2017-09-16T03:49:31.802Z,0
2017-09-16T03:50:42.050Z,0
2017-09-16T03:51:52.290Z,0
2017-09-16T03:53:02.880Z,0
2017-09-16T03:54:11.872Z,0
2017-09-16T03:55:22.128Z,0
2017-09-16T03:56:32.376Z,0
2017-09-16T03:57:42.629Z,0
2017-09-16T03:58:52.863Z,0
2017-09-16T04:00:02.488Z,0
2017-09-16T04:01:12.430Z,0
2017-09-16T04:02:22.044Z,0
2017-09-16T04:03:32.298Z,0
2017-09-16T04:04:42.859Z,0
2017-09-16T04:05:52.793Z,0
2017-09-16T04:07:02.722Z,0
2017-09-16T04:08:12.646Z,0
2017-09-16T04:09:22.891Z,0
2017-09-16T04:10:32.869Z,0
2017-09-16T04:11:42.799Z,0
2017-09-16T04:12:53.049Z,0
2017-09-16T04:14:03.294Z,0
2017-09-16T04:15:13.241Z,0
2017-09-16T04:16:23.833Z,0
2017-09-16T04:17:33.776Z,0
2017-09-16T04:18:43.710Z,0
2017-09-16T04:19:53.959Z,0
2017-09-16T04:21:04.201Z,0
2017-09-16T04:22:14.485Z,0
2017-09-16T04:23:24.418Z,0
2017-09-16T04:24:34.364Z,0
2017-09-16T04:25:44.616Z,0
2017-09-16T04:26:54.898Z,0
2017-09-16T04:28:05.447Z,0
2017-09-16T04:29:15.688Z,0
2017-09-16T04:30:25.937Z,0
2017-09-16T04:31:35.872Z,0
2017-09-16T04:32:45.824Z,0
2017-09-16T04:33:56.390Z,5
2017-09-16T04:35:06.634Z,5
2017-09-16T04:36:16.561Z,5
2017-09-16T04:37:26.819Z,5
2017-09-16T04:38:37.064Z,5
2017-09-16T04:39:47.617Z,10
2017-09-16T04:40:57.547Z,10
2017-09-16T04:42:07.476Z,10
2017-09-16T04:43:17.409Z,10
2017-09-16T04:44:27.343Z,15
2017-09-16T04:45:37.946Z,15
2017-09-16T04:46:47.881Z,15
2017-09-16T04:47:58.120Z,20
2017-09-16T04:49:08.364Z,20
2017-09-16T04:50:18.612Z,20
2017-09-16T04:51:29.210Z,25
2017-09-16T04:52:38.826Z,25
2017-09-16T04:53:49.072Z,25
2017-09-16T04:54:59.019Z,30
2017-09-16T04:56:08.948Z,30
2017-09-16T04:57:19.538Z,35
2017-09-16T04:58:29.476Z,35
2017-09-16T04:59:39.409Z,40
2017-09-16T05:00:49.660Z,40
2017-09-16T05:01:59.900Z,45
2017-09-16T05:03:09.858Z,45
2017-09-16T05:04:19.793Z,50
2017-09-16T05:05:30.037Z,50
2017-09-16T05:06:40.287Z,55
2017-09-16T05:07:50.235Z,55
2017-09-16T05:09:00.843Z,60
2017-09-16T05:10:10.453Z,65
2017-09-16T05:11:20.065Z,65
2017-09-16T05:12:29.996Z,70
2017-09-16T05:13:40.245Z,75
2017-09-16T05:14:50.472Z,80
2017-09-16T05:16:00.720Z,85
2017-09-16T05:17:10.974Z,90
2017-09-16T05:18:21.213Z,90
2017-09-16T05:19:31.462Z,90
2017-09-16T05:20:42.009Z,95
2017-09-16T05:21:52.257Z,100
2017-09-16T05:23:02.498Z,105
2017-09-16T05:24:12.747Z,105
2017-09-16T05:25:22.674Z,110
2017-09-16T05:26:32.322Z,110
2017-09-16T05:27:42.555Z,115
2017-09-16T05:28:52.805Z,120
2017-09-16T05:30:03.085Z,120
2017-09-16T05:31:13.329Z,125
2017-09-16T05:32:23.873Z,125
2017-09-16T05:33:33.180Z,130
2017-09-16T05:34:43.099Z,130
2017-09-16T05:35:53.389Z,135
2017-09-16T05:37:03.639Z,140
2017-09-16T05:38:13.865Z,140
2017-09-16T05:39:24.118Z,145
2017-09-16T05:40:34.055Z,145
2017-09-16T05:41:44.303Z,150
2017-09-16T05:42:53.913Z,150
2017-09-16T05:44:04.215Z,155
2017-09-16T05:45:14.459Z,155
2017-09-16T05:46:24.699Z,155
2017-09-16T05:47:34.962Z,160
2017-09-16T05:48:45.217Z,160
2017-09-16T05:49:55.788Z,165
2017-09-16T05:51:06.038Z,165
2017-09-16T05:52:16.294Z,170
2017-09-16T05:53:26.534Z,170
2017-09-16T05:54:36.778Z,175
2017-09-16T05:55:47.327Z,175
2017-09-16T05:56:57.258Z,180
2017-09-16T05:58:07.189Z,180
2017-09-16T05:59:17.430Z,180
2017-09-16T06:00:27.672Z,185
2017-09-16T06:01:37.964Z,185
2017-09-16T06:02:48.216Z,190
2017-09-16T06:03:58.150Z,190
2017-09-16T06:05:08.408Z,190
2017-09-16T06:06:18.037Z,195
2017-09-16T06:07:28.273Z,195
2017-09-16T06:08:38.542Z,195
2017-09-16T06:09:48.786Z,200
2017-09-16T06:10:58.712Z,200
2017-09-16T06:12:08.953Z,205
2017-09-16T06:13:19.234Z,205
2017-09-16T06:14:29.475Z,205
2017-09-16T06:15:39.399Z,210
2017-09-16T06:16:49.325Z,210
2017-09-16T06:17:59.573Z,210
2017-09-16T06:19:10.136Z,215
2017-09-16T06:20:20.379Z,220
2017-09-16T06:21:30.622Z,220
2017-09-16T06:22:40.869Z,220
2017-09-16T06:23:51.114Z,220
2017-09-16T06:25:01.413Z,220
2017-09-16T06:26:11.659Z,225
2017-09-16T06:27:21.621Z,225
2017-09-16T06:28:31.560Z,225
2017-09-16T06:29:41.492Z,230
2017-09-16T06:30:52.088Z,230
2017-09-16T06:32:02.021Z,230
2017-09-16T06:33:12.280Z,230
2017-09-16T06:34:22.527Z,235
2017-09-16T06:35:32.449Z,235
2017-09-16T06:36:43.049Z,235
2017-09-16T06:37:53.341Z,240
2017-09-16T06:39:03.268Z,240
2017-09-16T06:40:12.571Z,240
2017-09-16T06:41:22.193Z,245
2017-09-16T06:42:32.805Z,245
2017-09-16T06:43:42.742Z,245
2017-09-16T06:44:52.373Z,245
2017-09-16T06:46:02.854Z,245
2017-09-16T06:47:12.788Z,245
2017-09-16T06:48:23.149Z,250
2017-09-16T06:49:33.098Z,250
2017-09-16T06:50:43.031Z,255
2017-09-16T06:51:53.283Z,255
2017-09-16T06:53:03.537Z,260
2017-09-16T06:54:14.080Z,260
2017-09-16T06:55:24.332Z,260
2017-09-16T06:56:34.279Z,265
2017-09-16T06:57:44.523Z,265
2017-09-16T06:58:54.766Z,265
2017-09-16T07:00:04.683Z,280
2017-09-16T07:01:13.991Z,305
2017-09-16T07:02:23.929Z,310
2017-09-16T07:03:33.551Z,295
2017-09-16T07:04:43.794Z,290
2017-09-16T07:05:54.398Z,285
2017-09-16T07:07:04.657Z,280
2017-09-16T07:08:14.900Z,280
2017-09-16T07:09:25.145Z,280
2017-09-16T07:10:35.076Z,280
2017-09-16T07:11:45.678Z,285
2017-09-16T07:12:55.940Z,285
2017-09-16T07:14:06.187Z,290
2017-09-16T07:15:16.444Z,290
2017-09-16T07:16:26.390Z,290
2017-09-16T07:17:36.680Z,290
2017-09-16T07:18:46.936Z,295
2017-09-16T07:19:56.864Z,295
2017-09-16T07:21:07.125Z,295
2017-09-16T07:22:17.064Z,300
2017-09-16T07:23:27.362Z,300
2017-09-16T07:24:37.624Z,300
2017-09-16T07:25:47.868Z,300
2017-09-16T07:26:57.818Z,300
2017-09-16T07:28:07.746Z,300
2017-09-16T07:29:17.981Z,305
2017-09-16T07:30:28.257Z,305
2017-09-16T07:31:38.198Z,305
2017-09-16T07:32:48.447Z,305
2017-09-16T07:33:58.713Z,310
2017-09-16T07:35:09.315Z,310
2017-09-16T07:36:19.251Z,310
2017-09-16T07:37:29.494Z,310
2017-09-16T07:38:39.431Z,310
2017-09-16T07:39:49.376Z,310
2017-09-16T07:40:59.929Z,315
2017-09-16T07:42:10.182Z,315
2017-09-16T07:43:20.143Z,315
2017-09-16T07:44:30.396Z,315
2017-09-16T07:45:40.649Z,315
2017-09-16T07:46:50.940Z,320
2017-09-16T07:48:01.202Z,320
2017-09-16T07:49:11.470Z,325
2017-09-16T07:50:21.401Z,325
2017-09-16T07:51:31.017Z,320
2017-09-16T07:52:41.572Z,320
2017-09-16T07:53:51.813Z,325
2017-09-16T07:55:01.760Z,325
2017-09-16T07:56:12.029Z,330
2017-09-16T07:57:22.271Z,330
2017-09-16T07:58:32.828Z,335
2017-09-16T07:59:43.086Z,340
2017-09-16T08:00:52.729Z,340
2017-09-16T08:02:02.375Z,345
2017-09-16T08:03:12.319Z,350
2017-09-16T08:04:22.621Z,355
2017-09-16T08:05:32.871Z,355
2017-09-16T08:06:43.162Z,360
2017-09-16T08:07:53.429Z,510
2017-09-16T08:09:03.693Z,750
2017-09-16T08:10:13.982Z,725
2017-09-16T08:11:24.246Z,655
2017-09-16T08:12:34.185Z,600
2017-09-16T08:13:44.432Z,540
2017-09-16T08:14:54.695Z,620
2017-09-16T08:16:05.327Z,630
2017-09-16T08:17:15.586Z,480
2017-09-16T08:18:25.529Z,745
2017-09-16T08:19:35.788Z,590
2017-09-16T08:20:45.730Z,565
2017-09-16T08:21:56.334Z,635
2017-09-16T08:23:06.583Z,805
2017-09-16T08:24:16.842Z,785
2017-09-16T08:25:26.783Z,505
2017-09-16T08:26:37.040Z,765
2017-09-16T08:27:47.666Z,590
2017-09-16T08:28:57.611Z,530
2017-09-16T08:30:07.876Z,855
2017-09-16T08:31:17.820Z,805
2017-09-16T08:32:28.074Z,755
2017-09-16T08:33:38.372Z,775
2017-09-16T08:34:48.643Z,1130
2017-09-16T08:35:58.587Z,1040
2017-09-16T08:37:08.208Z,1110
2017-09-16T08:38:18.153Z,1175
2017-09-16T08:39:28.391Z,1165
2017-09-16T08:40:38.658Z,1170
2017-09-16T08:41:48.925Z,1150
2017-09-16T08:42:59.176Z,1170
2017-09-16T08:44:09.442Z,1215
2017-09-16T08:45:19.742Z,1230
2017-09-16T08:46:30.011Z,1300
2017-09-16T08:47:40.269Z,1025
2017-09-16T08:48:49.891Z,1160
2017-09-16T08:49:59.841Z,1230
2017-09-16T08:51:09.774Z,1280
2017-09-16T08:52:20.042Z,1265
2017-09-16T08:53:30.323Z,1165
2017-09-16T08:54:40.259Z,1150
2017-09-16T08:55:50.535Z,1150
2017-09-16T08:57:00.776Z,1190
2017-09-16T08:58:10.722Z,1295
2017-09-16T08:59:21.001Z,1140
2017-09-16T09:00:31.271Z,1195
2017-09-16T09:01:41.215Z,1060
2017-09-16T09:02:51.463Z,910
2017-09-16T09:04:01.090Z,1090
2017-09-16T09:05:11.364Z,1225
2017-09-16T09:06:21.316Z,1420
2017-09-16T09:07:31.262Z,1430
2017-09-16T09:08:41.873Z,1540
2017-09-16T09:09:52.130Z,1330
2017-09-16T09:11:02.132Z,1390
2017-09-16T09:12:12.081Z,1290
2017-09-16T09:13:22.341Z,1355
2017-09-16T09:14:32.637Z,1320
2017-09-16T09:15:42.897Z,1340
2017-09-16T09:16:52.839Z,1190
2017-09-16T09:18:03.097Z,1170
2017-09-16T09:19:13.053Z,1155
2017-09-16T09:20:23.352Z,1270
2017-09-16T09:21:33.303Z,1465
2017-09-16T09:22:43.553Z,1550
2017-09-16T09:23:53.516Z,1680
2017-09-16T09:25:03.456Z,1560
2017-09-16T09:26:14.029Z,1670
2017-09-16T09:27:24.290Z,1800
2017-09-16T09:28:34.560Z,1840
2017-09-16T09:29:44.836Z,1765
2017-09-16T09:30:54.787Z,1745
2017-09-16T09:32:05.393Z,1755
2017-09-16T09:33:15.027Z,1815
2017-09-16T09:34:25.300Z,1900
2017-09-16T09:35:35.546Z,1875
2017-09-16T09:36:45.495Z,1850
2017-09-16T09:37:56.102Z,1870
2017-09-16T09:39:06.360Z,1935
2017-09-16T09:40:16.297Z,1975
2017-09-16T09:41:26.256Z,2020
2017-09-16T09:42:36.207Z,1820
2017-09-16T09:43:46.818Z,2000
2017-09-16T09:44:57.082Z,1645
2017-09-16T09:46:07.369Z,1410
2017-09-16T09:47:17.622Z,1600
2017-09-16T09:48:27.898Z,1740
2017-09-16T09:49:38.189Z,1765
2017-09-16T09:50:47.840Z,1935
2017-09-16T09:51:58.103Z,2055
2017-09-16T09:53:08.376Z,2120
2017-09-16T09:54:18.329Z,2095
2017-09-16T09:55:28.959Z,2205
2017-09-16T09:56:38.913Z,2220
2017-09-16T09:57:49.180Z,2220
2017-09-16T09:58:59.455Z,1740
2017-09-16T10:00:09.729Z,2180
2017-09-16T10:01:20.303Z,2115
2017-09-16T10:02:30.583Z,2160
2017-09-16T10:03:40.863Z,2105
2017-09-16T10:04:51.127Z,2110
2017-09-16T10:06:01.070Z,2075
2017-09-16T10:07:11.685Z,2055
2017-09-16T10:08:21.951Z,2095
2017-09-16T10:09:31.890Z,1920
2017-09-16T10:10:41.832Z,1850
2017-09-16T10:11:52.124Z,1910
2017-09-16T10:13:02.689Z,1995
2017-09-16T10:14:12.953Z,1825
2017-09-16T10:15:23.206Z,1695
2017-09-16T10:16:33.480Z,1410
2017-09-16T10:17:43.430Z,1340
2017-09-16T10:18:54.051Z,1845
2017-09-16T10:20:04.317Z,1930
2017-09-16T10:21:13.949Z,2250
2017-09-16T10:22:23.583Z,2305
2017-09-16T10:23:33.526Z,2165
2017-09-16T10:24:43.782Z,2265
2017-09-16T10:25:54.045Z,2360
2017-09-16T10:27:03.685Z,2105
2017-09-16T10:28:13.634Z,1830
2017-09-16T10:29:23.906Z,1855
2017-09-16T10:30:34.527Z,2435
2017-09-16T10:31:44.806Z,2210
2017-09-16T10:32:54.756Z,2455
2017-09-16T10:34:05.059Z,2425
2017-09-16T10:35:15.323Z,2315
2017-09-16T10:36:25.935Z,2605
2017-09-16T10:37:35.889Z,2700
2017-09-16T10:38:46.161Z,2690
2017-09-16T10:39:56.126Z,2640
2017-09-16T10:41:06.075Z,2590
2017-09-16T10:42:16.659Z,2610
2017-09-16T10:43:26.929Z,2180
2017-09-16T10:44:37.202Z,2620
2017-09-16T10:45:47.463Z,2615
2017-09-16T10:46:57.735Z,2700
2017-09-16T10:48:08.306Z,2800
2017-09-16T10:49:18.251Z,2780
2017-09-16T10:50:28.517Z,2705
2017-09-16T10:51:38.784Z,2605
2017-09-16T10:52:49.076Z,2685
2017-09-16T10:53:59.327Z,2550
2017-09-16T10:55:09.596Z,2785
2017-09-16T10:56:19.865Z,2825
2017-09-16T10:57:29.832Z,2270
2017-09-16T10:58:39.809Z,1910
2017-09-16T10:59:50.384Z,2075
2017-09-16T11:01:00.381Z,1770
2017-09-16T11:02:10.642Z,2475
2017-09-16T11:03:20.899Z,2425
2017-09-16T11:04:30.850Z,2245
2017-09-16T11:05:41.409Z,1860
2017-09-16T11:06:51.671Z,1805
2017-09-16T11:08:01.936Z,1790
2017-09-16T11:09:11.893Z,1610
2017-09-16T11:10:21.863Z,1370
2017-09-16T11:11:32.430Z,1165
2017-09-16T11:12:42.685Z,1165
2017-09-16T11:13:52.982Z,1165
2017-09-16T11:15:02.935Z,1350
2017-09-16T11:16:12.564Z,1440
2017-09-16T11:17:22.857Z,1500
2017-09-16T11:18:33.113Z,1590
2017-09-16T11:19:43.389Z,1230
2017-09-16T11:20:53.387Z,1180
2017-09-16T11:22:03.650Z,1165
2017-09-16T11:23:13.898Z,1070
2017-09-16T11:24:23.537Z,1010
2017-09-16T11:25:33.815Z,1165
2017-09-16T11:26:44.102Z,1230
2017-09-16T11:27:54.374Z,1180
2017-09-16T11:29:04.682Z,1385
2017-09-16T11:30:14.952Z,1945
2017-09-16T11:31:24.898Z,2185
2017-09-16T11:32:35.155Z,3090
2017-09-16T11:33:45.424Z,3135
2017-09-16T11:34:55.371Z,3075
2017-09-16T11:36:05.321Z,3020
2017-09-16T11:37:14.995Z,3110
2017-09-16T11:38:25.254Z,3170
2017-09-16T11:39:35.210Z,3160
2017-09-16T11:40:45.466Z,3075
2017-09-16T11:41:55.730Z,3055
2017-09-16T11:43:05.989Z,1670
2017-09-16T11:44:16.286Z,930
2017-09-16T11:45:26.547Z,1150
2017-09-16T11:46:36.834Z,1010
2017-09-16T11:47:47.096Z,935
2017-09-16T11:48:57.381Z,845
2017-09-16T11:50:07.645Z,740
2017-09-16T11:51:17.273Z,650
2017-09-16T11:52:27.527Z,540
2017-09-16T11:53:37.833Z,490
2017-09-16T11:54:47.786Z,450
2017-09-16T11:55:58.049Z,420
2017-09-16T11:57:07.683Z,425
2017-09-16T11:58:18.246Z,425
2017-09-16T11:59:28.499Z,375
2017-09-16T12:00:38.754Z,350
2017-09-16T12:01:48.998Z,365
2017-09-16T12:02:58.932Z,375
2017-09-16T12:04:09.126Z,400
2017-09-16T12:05:19.395Z,420
2017-09-16T12:06:29.652Z,425
2017-09-16T12:07:39.603Z,445
2017-09-16T12:08:49.877Z,460
2017-09-16T12:10:00.377Z,490
2017-09-16T12:11:10.316Z,510
2017-09-16T12:12:20.573Z,560
2017-09-16T12:13:30.514Z,610
2017-09-16T12:14:40.176Z,715
2017-09-16T12:15:50.434Z,795
2017-09-16T12:17:00.693Z,860
2017-09-16T12:18:10.951Z,3080
2017-09-16T12:19:21.199Z,2840
2017-09-16T12:20:31.503Z,1110
2017-09-16T12:21:41.377Z,815
2017-09-16T12:22:51.641Z,755
2017-09-16T12:24:01.910Z,690
2017-09-16T12:25:11.858Z,665
2017-09-16T12:26:22.118Z,690
2017-09-16T12:27:32.627Z,725
2017-09-16T12:28:42.901Z,735
2017-09-16T12:29:52.841Z,715
2017-09-16T12:31:02.797Z,690
2017-09-16T12:32:12.731Z,660
2017-09-16T12:33:23.251Z,640
2017-09-16T12:34:33.511Z,645
2017-09-16T12:35:43.772Z,625
2017-09-16T12:36:54.029Z,620
2017-09-16T12:38:04.296Z,625
2017-09-16T12:39:14.801Z,605
2017-09-16T12:40:24.748Z,570
2017-09-16T12:41:34.710Z,580
2017-09-16T12:42:44.960Z,640
2017-09-16T12:43:55.231Z,750
2017-09-16T12:45:05.422Z,810
2017-09-16T12:46:15.360Z,820
2017-09-16T12:47:25.623Z,810
2017-09-16T12:48:35.576Z,810
2017-09-16T12:49:45.852Z,835
2017-09-16T12:50:55.732Z,845
2017-09-16T12:52:05.997Z,775
2017-09-16T12:53:16.250Z,730
2017-09-16T12:54:25.898Z,785
2017-09-16T12:55:35.853Z,1115
2017-09-16T12:56:46.361Z,3205
2017-09-16T12:57:56.622Z,3060
2017-09-16T12:59:06.905Z,1685
2017-09-16T13:00:17.174Z,810
2017-09-16T13:01:27.125Z,760
2017-09-16T13:02:37.636Z,740
2017-09-16T13:03:47.597Z,710
2017-09-16T13:04:57.872Z,710
2017-09-16T13:06:08.137Z,700
2017-09-16T13:07:18.395Z,690
2017-09-16T13:08:28.932Z,695
2017-09-16T13:09:38.875Z,760
2017-09-16T13:10:49.138Z,790
2017-09-16T13:11:58.771Z,630
2017-09-16T13:13:08.716Z,590
2017-09-16T13:14:19.224Z,605
2017-09-16T13:15:29.492Z,645
2017-09-16T13:16:39.784Z,770
2017-09-16T13:17:50.064Z,685
2017-09-16T13:18:59.698Z,770
2017-09-16T13:20:10.325Z,685
2017-09-16T13:21:20.592Z,725
2017-09-16T13:22:30.528Z,1495
2017-09-16T13:23:40.788Z,1285
2017-09-16T13:24:51.047Z,1360
2017-09-16T13:26:01.567Z,1870
2017-09-16T13:27:11.823Z,3460
2017-09-16T13:28:21.769Z,1890
2017-09-16T13:29:31.716Z,3260
2017-09-16T13:30:42.001Z,3130
2017-09-16T13:31:52.197Z,3035
2017-09-16T13:33:02.161Z,2995
2017-09-16T13:34:12.430Z,3000
2017-09-16T13:35:22.689Z,3015
2017-09-16T13:36:32.950Z,3095
2017-09-16T13:37:43.477Z,3150
2017-09-16T13:38:53.752Z,3245
2017-09-16T13:40:03.742Z,3200
2017-09-16T13:41:13.694Z,3015
2017-09-16T13:42:23.643Z,2945
2017-09-16T13:43:33.520Z,2970
2017-09-16T13:44:43.478Z,750
2017-09-16T13:45:53.736Z,810
2017-09-16T13:47:03.992Z,2050
2017-09-16T13:48:13.636Z,3050
2017-09-16T13:49:24.166Z,985
2017-09-16T13:50:34.127Z,665
2017-09-16T13:51:43.763Z,640
2017-09-16T13:52:53.723Z,675
2017-09-16T13:54:03.997Z,720
2017-09-16T13:55:14.505Z,840
2017-09-16T13:56:24.769Z,2285
2017-09-16T13:57:35.025Z,1650
2017-09-16T13:58:45.288Z,1040
2017-09-16T13:59:55.254Z,860
2017-09-16T14:01:05.449Z,970
2017-09-16T14:02:15.708Z,900
2017-09-16T14:03:25.957Z,870
2017-09-16T14:04:36.213Z,1560
2017-09-16T14:05:46.158Z,980
2017-09-16T14:06:56.666Z,885
2017-09-16T14:08:06.613Z,820
2017-09-16T14:09:16.559Z,815
2017-09-16T14:10:26.818Z,835
2017-09-16T14:11:37.089Z,860
2017-09-16T14:12:47.285Z,950
2017-09-16T14:13:57.223Z,1025
2017-09-16T14:15:07.488Z,1090
2017-09-16T14:16:17.758Z,2835
2017-09-16T14:17:28.016Z,3035
2017-09-16T14:18:38.531Z,2985
2017-09-16T14:19:48.778Z,3015
2017-09-16T14:20:59.051Z,2965
2017-09-16T14:22:09.311Z,2815
2017-09-16T14:23:19.576Z,2765
2017-09-16T14:24:29.772Z,2740
2017-09-16T14:25:40.034Z,790
2017-09-16T14:26:50.287Z,725
2017-09-16T14:28:00.550Z,1810
2017-09-16T14:29:10.825Z,760
2017-09-16T14:30:21.337Z,850
2017-09-16T14:31:31.610Z,2275
2017-09-16T14:32:41.552Z,1210
2017-09-16T14:33:51.804Z,705
2017-09-16T14:35:02.071Z,680
2017-09-16T14:36:12.594Z,700
2017-09-16T14:37:22.897Z,980
2017-09-16T14:38:32.847Z,1155
2017-09-16T14:39:43.111Z,925
2017-09-16T14:40:53.370Z,955
2017-09-16T14:42:03.895Z,870
2017-09-16T14:43:14.172Z,910
2017-09-16T14:44:24.448Z,950
2017-09-16T14:45:34.702Z,970
2017-09-16T14:46:44.966Z,1680
2017-09-16T14:47:55.503Z,2215
2017-09-16T14:49:05.768Z,2410
2017-09-16T14:50:16.038Z,2290
2017-09-16T14:51:25.983Z,975
2017-09-16T14:52:36.284Z,780
2017-09-16T14:53:46.484Z,755
2017-09-16T14:54:56.108Z,810
2017-09-16T14:56:06.047Z,1890
2017-09-16T14:57:15.984Z,2340
2017-09-16T14:58:25.928Z,1145
2017-09-16T14:59:36.117Z,970
2017-09-16T15:00:45.760Z,960
2017-09-16T15:01:56.044Z,1120
2017-09-16T15:03:05.983Z,2095
2017-09-16T15:04:16.245Z,2120
2017-09-16T15:05:26.440Z,2055
2017-09-16T15:06:36.693Z,1090
2017-09-16T15:07:46.974Z,770
2017-09-16T15:08:57.229Z,930
2017-09-16T15:10:07.491Z,1180
2017-09-16T15:11:17.997Z,675
2017-09-16T15:12:27.983Z,610
2017-09-16T15:13:38.261Z,655
2017-09-16T15:14:48.205Z,545
2017-09-16T15:15:58.474Z,1060
2017-09-16T15:17:08.726Z,1335
2017-09-16T15:18:18.990Z,1020
2017-09-16T15:19:29.241Z,600
2017-09-16T15:20:39.513Z,970
2017-09-16T15:21:49.767Z,755
2017-09-16T15:23:00.340Z,1690
2017-09-16T15:24:10.279Z,1880
2017-09-16T15:25:20.221Z,1460
2017-09-16T15:26:30.498Z,1100
2017-09-16T15:27:40.763Z,1510
2017-09-16T15:28:51.262Z,1755
2017-09-16T15:30:01.198Z,1810
2017-09-16T15:31:11.460Z,1540
2017-09-16T15:32:21.754Z,760
2017-09-16T15:33:32.019Z,725
2017-09-16T15:34:42.519Z,590
2017-09-16T15:35:52.466Z,560
2017-09-16T15:37:02.731Z,585
2017-09-16T15:38:12.366Z,1025
2017-09-16T15:39:22.310Z,1180
2017-09-16T15:40:32.504Z,820
2017-09-16T15:41:42.757Z,665
2017-09-16T15:42:52.702Z,490
2017-09-16T15:44:02.968Z,520
2017-09-16T15:45:13.222Z,725
2017-09-16T15:46:23.742Z,1020
2017-09-16T15:47:33.685Z,1200
2017-09-16T15:48:43.632Z,1300
2017-09-16T15:49:53.890Z,1320
2017-09-16T15:51:03.522Z,1290
2017-09-16T15:52:14.052Z,1250
2017-09-16T15:53:23.997Z,1230
2017-09-16T15:54:34.262Z,1225
2017-09-16T15:55:44.519Z,1190
2017-09-16T15:56:54.784Z,755
2017-09-16T15:58:05.316Z,775
2017-09-16T15:59:15.597Z,885
2017-09-16T16:00:25.878Z,950
2017-09-16T16:01:36.151Z,1015
2017-09-16T16:02:46.103Z,935
2017-09-16T16:03:56.655Z,940
2017-09-16T16:05:06.603Z,425
2017-09-16T16:06:16.864Z,380
2017-09-16T16:07:27.137Z,360
2017-09-16T16:08:37.407Z,350
2017-09-16T16:09:47.608Z,345
2017-09-16T16:10:57.568Z,345
2017-09-16T16:12:07.832Z,345
2017-09-16T16:13:18.101Z,340
2017-09-16T16:14:28.043Z,335
2017-09-16T16:15:37.927Z,335
2017-09-16T16:16:47.861Z,335